Time;durP1;ratioP1;P1;durP2;ratioP2;P2;SDS_P1;SDS_P2;PMS_P1;PMS_P2;Temp;Humidity;BMP_temperature;BMP_pressure;BME280_temperature;BME280_humidity;BME280_pressure;Samples;Min_cycle;Max_cycle;Signal;HPM_P1;HPM_P2
2023/04/17 00:00:06;;;;;;;3.88;3.67;;;;;;;;;;10242460;28;20251;-77
2023/04/17 00:05:07;;;;;;;5.10;4.60;;;;;;;;;;10251686;28;20695;-77
2023/04/17 00:10:09;;;;;;;4.60;4.15;;;;;;;;;;10247875;28;20742;-77
2023/04/17 00:15:11;;;;;;;4.55;4.25;;;;;;;;;;10248087;28;20206;-75
2023/04/17 00:20:12;;;;;;;4.50;4.13;;;;;;;;;;10247715;28;20237;-76
2023/04/17 00:25:13;;;;;;;5.53;4.32;;;;;;;;;;10252635;28;20889;-77
2023/04/17 00:30:14;;;;;;;4.63;4.22;;;;;;;;;;10244815;28;20202;-76
2023/04/17 00:35:16;;;;;;;5.93;4.22;;;;;;;;;;10246193;28;20304;-76
2023/04/17 00:40:17;;;;;;;5.13;4.72;;;;;;;;;;10243850;28;20300;-77
2023/04/17 00:45:19;;;;;;;5.85;4.40;;;;;;;;;;10245875;28;20236;-76
2023/04/17 00:50:20;;;;;;;5.72;4.30;;;;;;;;;;10229920;28;21004;-75
2023/04/17 00:55:22;;;;;;;4.80;4.50;;;;;;;;;;10217278;28;20266;-73
2023/04/17 01:00:23;;;;;;;5.28;4.72;;;;;;;;;;10223336;28;20227;-76
2023/04/17 01:05:27;;;;;;;5.22;4.78;;;;;;;;;;10242639;28;20213;-77
2023/04/17 01:10:28;;;;;;;6.22;5.03;;;;;;;;;;10226604;28;20221;-77
2023/04/17 01:15:29;;;;;;;5.82;5.20;;;;;;;;;;10247580;28;20222;-77
2023/04/17 01:20:31;;;;;;;9.13;5.45;;;;;;;;;;10248494;28;20279;-76
2023/04/17 01:25:32;;;;;;;6.38;5.78;;;;;;;;;;10238892;28;20847;-75
2023/04/17 01:30:34;;;;;;;6.13;5.47;;;;;;;;;;10229803;28;22647;-75
2023/04/17 01:35:38;;;;;;;5.50;4.90;;;;;;;;;;10234156;28;20924;-75
2023/04/17 01:40:39;;;;;;;7.63;5.00;;;;;;;;;;10238561;28;20232;-74
2023/04/17 01:45:40;;;;;;;5.35;4.90;;;;;;;;;;10233980;28;20224;-76
2023/04/17 01:50:41;;;;;;;12.23;6.00;;;;;;;;;;10246781;28;20221;-77
2023/04/17 01:55:42;;;;;;;5.45;5.03;;;;;;;;;;10234247;28;20230;-76
2023/04/17 02:00:47;;;;;;;5.75;4.93;;;;;;;;;;10227928;28;20307;-77
2023/04/17 02:05:47;;;;;;;7.30;5.43;;;;;;;;;;10228056;28;20252;-73
2023/04/17 02:10:49;;;;;;;6.57;5.28;;;;;;;;;;10229700;28;20228;-75
2023/04/17 02:15:50;;;;;;;6.60;5.82;;;;;;;;;;10237691;28;20724;-78
2023/04/17 02:20:51;;;;;;;7.18;6.45;;;;;;;;;;10255671;28;20430;-77
2023/04/17 02:25:52;;;;;;;9.07;5.55;;;;;;;;;;10252024;28;20328;-74
2023/04/17 02:30:53;;;;;;;6.30;5.38;;;;;;;;;;10252051;28;20855;-75
2023/04/17 02:35:54;;;;;;;7.53;5.75;;;;;;;;;;10231586;28;20226;-75
2023/04/17 02:41:00;;;;;;;6.32;5.72;;;;;;;;;;10229229;28;20213;-75
2023/04/17 02:46:04;;;;;;;8.43;6.38;;;;;;;;;;10256133;28;20218;-77
2023/04/17 02:51:05;;;;;;;7.78;5.97;;;;;;;;;;10240982;28;20229;-76
2023/04/17 02:56:07;;;;;;;6.63;5.82;;;;;;;;;;10235963;28;20225;-76
2023/04/17 03:01:09;;;;;;;9.70;5.30;;;;;;;;;;10256382;28;20218;-75
2023/04/17 03:06:14;;;;;;;6.45;5.38;;;;;;;;;;10235611;28;20214;-74
2023/04/17 03:11:15;;;;;;;8.73;6.13;;;;;;;;;;10243317;28;20219;-77
2023/04/17 03:16:16;;;;;;;8.02;5.55;;;;;;;;;;10247324;28;20312;-78
2023/04/17 03:21:20;;;;;;;7.28;5.72;;;;;;;;;;10242881;28;20213;-74
2023/04/17 03:26:21;;;;;;;7.88;5.13;;;;;;;;;;10226806;28;20221;-79
2023/04/17 03:31:24;;;;;;;8.77;5.88;;;;;;;;;;10269873;28;20218;-75
2023/04/17 03:36:26;;;;;;;9.88;6.10;;;;;;;;;;10255817;28;20221;-80
2023/04/17 03:41:27;;;;;;;7.05;6.28;;;;;;;;;;10240487;28;20209;-78
2023/04/17 03:46:28;;;;;;;8.38;6.10;;;;;;;;;;10237409;28;20235;-75
2023/04/17 03:51:30;;;;;;;13.68;6.40;;;;;;;;;;10251797;28;20217;-79
2023/04/17 03:56:37;;;;;;;8.43;5.70;;;;;;;;;;10240071;28;20324;-74
2023/04/17 04:01:38;;;;;;;10.23;6.47;;;;;;;;;;10237353;28;20304;-76
2023/04/17 04:07:00;;;;;;;7.00;5.95;;;;;;;;;;10216716;28;20221;-77
2023/04/17 04:12:02;;;;;;;8.35;6.22;;;;;;;;;;10237905;28;20212;-76
2023/04/17 04:17:06;;;;;;;8.52;6.18;;;;;;;;;;10222472;28;20213;-78
2023/04/17 04:22:09;;;;;;;8.50;5.78;;;;;;;;;;10228130;28;20241;-75
2023/04/17 04:27:17;;;;;;;8.48;6.03;;;;;;;;;;10269632;28;20225;-76
2023/04/17 04:32:19;;;;;;;9.95;6.40;;;;;;;;;;10227950;28;20224;-76
2023/04/17 04:37:28;;;;;;;6.70;5.55;;;;;;;;;;10215305;28;20322;-75
2023/04/17 04:42:33;;;;;;;14.25;7.32;;;;;;;;;;10202643;28;20228;-77
2023/04/17 04:47:42;;;;;;;9.25;7.03;;;;;;;;;;10232532;28;21026;-77
2023/04/17 04:52:43;;;;;;;8.40;6.43;;;;;;;;;;10243950;28;20225;-76
2023/04/17 04:57:59;;;;;;;9.95;6.35;;;;;;;;;;10255374;28;20236;-75
2023/04/17 05:03:01;;;;;;;8.57;7.00;;;;;;;;;;10219895;28;20221;-76
2023/04/17 05:08:03;;;;;;;7.68;6.30;;;;;;;;;;10227053;28;20221;-76
2023/04/17 05:13:09;;;;;;;7.35;5.90;;;;;;;;;;10257956;28;20773;-79
2023/04/17 05:18:11;;;;;;;11.77;6.53;;;;;;;;;;10246328;28;20316;-78
2023/04/17 05:23:13;;;;;;;8.70;6.05;;;;;;;;;;10251722;28;20930;-76
2023/04/17 05:28:15;;;;;;;6.70;5.82;;;;;;;;;;10223331;28;20277;-77
2023/04/17 05:33:17;;;;;;;11.60;7.35;;;;;;;;;;10253192;28;20742;-74
2023/04/17 05:38:26;;;;;;;7.18;5.90;;;;;;;;;;10221106;28;20692;-76
2023/04/17 05:43:27;;;;;;;9.10;5.80;;;;;;;;;;10235651;28;20301;-74
2023/04/17 05:48:29;;;;;;;7.43;6.65;;;;;;;;;;10225591;28;20615;-76
2023/04/17 05:53:30;;;;;;;11.73;7.00;;;;;;;;;;10223499;28;20580;-78
2023/04/17 05:58:34;;;;;;;12.88;6.95;;;;;;;;;;10227474;28;20245;-79
2023/04/17 06:03:37;;;;;;;6.43;5.85;;;;;;;;;;10227345;28;20235;-77
2023/04/17 06:08:51;;;;;;;8.07;6.43;;;;;;;;;;10257912;28;20306;-77
2023/04/17 06:13:52;;;;;;;8.77;6.90;;;;;;;;;;10241161;28;20226;-75
2023/04/17 06:18:53;;;;;;;6.60;5.97;;;;;;;;;;10206797;28;20229;-78
2023/04/17 06:23:54;;;;;;;10.65;7.72;;;;;;;;;;10231315;28;20575;-77
2023/04/17 06:28:55;;;;;;;11.55;7.30;;;;;;;;;;10253228;28;20232;-77
2023/04/17 06:33:58;;;;;;;7.85;6.78;;;;;;;;;;10213528;28;20225;-77
2023/04/17 06:39:03;;;;;;;9.85;6.93;;;;;;;;;;10224214;28;20217;-76
2023/04/17 06:44:05;;;;;;;9.93;7.30;;;;;;;;;;10240326;28;20213;-76
2023/04/17 06:49:24;;;;;;;9.68;6.93;;;;;;;;;;10228767;28;20264;-77
2023/04/17 06:54:25;;;;;;;12.75;7.82;;;;;;;;;;10242759;28;20319;-77
2023/04/17 06:59:26;;;;;;;11.23;8.27;;;;;;;;;;10253372;28;20704;-77
2023/04/17 07:04:30;;;;;;;10.52;7.05;;;;;;;;;;10235743;28;20708;-76
2023/04/17 07:09:31;;;;;;;13.13;8.13;;;;;;;;;;10255484;28;20229;-76
2023/04/17 07:14:32;;;;;;;8.77;6.97;;;;;;;;;;10239255;28;20245;-77
2023/04/17 07:19:33;;;;;;;7.82;7.05;;;;;;;;;;10248825;28;20221;-76
2023/04/17 07:24:35;;;;;;;10.77;7.65;;;;;;;;;;10225179;28;20244;-76
2023/04/17 07:29:36;;;;;;;10.23;7.07;;;;;;;;;;10230102;28;20226;-76
2023/04/17 07:34:40;;;;;;;10.32;8.00;;;;;;;;;;10245270;28;20221;-76
2023/04/17 07:39:41;;;;;;;11.80;7.05;;;;;;;;;;10237459;28;20242;-77
2023/04/17 07:44:42;;;;;;;7.13;6.40;;;;;;;;;;10218108;28;20256;-77
2023/04/17 07:49:47;;;;;;;6.43;5.82;;;;;;;;;;10244879;28;20248;-76
2023/04/17 07:54:48;;;;;;;10.18;6.10;;;;;;;;;;10246239;28;20222;-74
2023/04/17 07:59:49;;;;;;;6.82;5.65;;;;;;;;;;10228834;28;20317;-76
2023/04/17 08:04:51;;;;;;;7.05;5.97;;;;;;;;;;10231599;28;20710;-76
2023/04/17 08:09:51;;;;;;;6.05;5.45;;;;;;;;;;10247303;28;20714;-76
2023/04/17 08:14:52;;;;;;;6.88;5.57;;;;;;;;;;10248535;28;20232;-76
2023/04/17 08:19:56;;;;;;;7.15;6.45;;;;;;;;;;10247691;28;20316;-76
2023/04/17 08:24:57;;;;;;;6.45;5.00;;;;;;;;;;10215880;28;20209;-77
2023/04/17 08:29:58;;;;;;;11.10;5.80;;;;;;;;;;10240064;28;20577;-75
2023/04/17 08:34:59;;;;;;;8.25;5.90;;;;;;;;;;10240008;28;20213;-74
2023/04/17 08:40:00;;;;;;;9.18;5.90;;;;;;;;;;10232621;28;20985;-75
2023/04/17 08:45:03;;;;;;;7.70;6.10;;;;;;;;;;10238024;28;20225;-78
2023/04/17 08:50:08;;;;;;;6.53;5.90;;;;;;;;;;10240714;28;20260;-75
2023/04/17 08:55:10;;;;;;;6.97;5.57;;;;;;;;;;10227512;28;20965;-76
2023/04/17 09:00:11;;;;;;;10.27;6.53;;;;;;;;;;10243375;28;20784;-77
2023/04/17 09:05:20;;;;;;;8.20;6.22;;;;;;;;;;10240835;28;20440;-76
2023/04/17 09:10:33;;;;;;;6.78;5.90;;;;;;;;;;10233414;28;20217;-79
2023/04/17 09:15:35;;;;;;;9.75;5.57;;;;;;;;;;10248707;28;20220;-73
2023/04/17 09:20:48;;;;;;;6.57;5.97;;;;;;;;;;10241034;28;20647;-78
2023/04/17 09:26:06;;;;;;;5.90;5.35;;;;;;;;;;10223744;28;20230;-79
2023/04/17 09:31:26;;;;;;;7.55;5.28;;;;;;;;;;10212500;28;20233;-81
2023/04/17 09:36:31;;;;;;;5.97;5.38;;;;;;;;;;10238003;28;20225;-77
2023/04/17 09:41:37;;;;;;;7.88;5.22;;;;;;;;;;10211528;28;20631;-80
2023/04/17 09:46:41;;;;;;;5.00;4.40;;;;;;;;;;10254797;28;20217;-76
2023/04/17 09:51:42;;;;;;;9.98;5.75;;;;;;;;;;10239093;28;20224;-77
2023/04/17 09:56:43;;;;;;;5.70;4.85;;;;;;;;;;10242345;28;20213;-76
2023/04/17 10:01:45;;;;;;;6.50;5.78;;;;;;;;;;10240148;28;20221;-75
2023/04/17 10:06:46;;;;;;;7.78;6.30;;;;;;;;;;10220780;28;21037;-76
2023/04/17 10:11:47;;;;;;;6.82;6.20;;;;;;;;;;10235892;28;20226;-77
2023/04/17 10:16:49;;;;;;;6.53;5.90;;;;;;;;;;10235969;28;20217;-75
2023/04/17 10:22:10;;;;;;;9.43;5.68;;;;;;;;;;10235709;28;20590;-76
2023/04/17 10:27:26;;;;;;;8.52;5.68;;;;;;;;;;10218419;28;20308;-77
2023/04/17 10:32:28;;;;;;;6.95;6.22;;;;;;;;;;10224972;28;20221;-77
2023/04/17 10:37:47;;;;;;;9.68;7.47;;;;;;;;;;10226056;28;21210;-77
2023/04/17 10:43:03;;;;;;;6.80;6.18;;;;;;;;;;10249305;28;20217;-76
2023/04/17 10:48:04;;;;;;;8.15;5.30;;;;;;;;;;10241932;28;20254;-78
2023/04/17 10:53:05;;;;;;;6.00;5.50;;;;;;;;;;10247382;28;20267;-76
2023/04/17 10:58:14;;;;;;;5.82;4.80;;;;;;;;;;10236778;28;20222;-78
2023/04/17 11:03:15;;;;;;;5.95;5.30;;;;;;;;;;10229096;28;20719;-75
2023/04/17 11:08:16;;;;;;;13.45;5.53;;;;;;;;;;10256678;28;20217;-75
2023/04/17 11:13:17;;;;;;;6.00;4.85;;;;;;;;;;10211344;28;20228;-75
2023/04/17 11:18:21;;;;;;;7.22;5.97;;;;;;;;;;10225690;28;20222;-75
2023/04/17 11:23:22;;;;;;;7.80;5.75;;;;;;;;;;10234048;28;20870;-76
2023/04/17 11:28:23;;;;;;;6.40;5.47;;;;;;;;;;10254268;28;20283;-75
2023/04/17 11:33:24;;;;;;;5.22;4.70;;;;;;;;;;10247419;28;20224;-73
2023/04/17 11:38:25;;;;;;;5.57;5.10;;;;;;;;;;10234188;28;20317;-76
2023/04/17 11:43:28;;;;;;;6.15;4.95;;;;;;;;;;10250685;28;20280;-75
2023/04/17 11:48:31;;;;;;;5.05;4.65;;;;;;;;;;10240778;28;20312;-76
2023/04/17 11:53:34;;;;;;;5.40;4.90;;;;;;;;;;10233823;28;20225;-77
2023/04/17 11:58:44;;;;;;;5.82;4.95;;;;;;;;;;10244141;28;20226;-76
2023/04/17 12:03:46;;;;;;;5.90;4.50;;;;;;;;;;10252156;28;20280;-77
2023/04/17 12:08:52;;;;;;;5.57;5.18;;;;;;;;;;10239305;28;20225;-75
2023/04/17 12:13:54;;;;;;;6.45;4.50;;;;;;;;;;10245999;28;20308;-75
2023/04/17 12:18:55;;;;;;;4.35;3.85;;;;;;;;;;10239322;28;20236;-77
2023/04/17 12:23:56;;;;;;;4.60;4.10;;;;;;;;;;10243343;28;20224;-76
2023/04/17 12:28:57;;;;;;;4.85;4.45;;;;;;;;;;10249639;28;20221;-77
2023/04/17 12:33:58;;;;;;;5.18;4.78;;;;;;;;;;10239092;28;24122;-76
2023/04/17 12:38:59;;;;;;;4.47;3.92;;;;;;;;;;10243853;28;20467;-77
2023/04/17 12:44:02;;;;;;;5.93;4.30;;;;;;;;;;10241592;28;20225;-78
2023/04/17 12:49:03;;;;;;;5.82;5.18;;;;;;;;;;10258223;28;20229;-76
2023/04/17 12:54:04;;;;;;;4.60;4.30;;;;;;;;;;10256161;28;21210;-79
2023/04/17 12:59:05;;;;;;;9.23;5.35;;;;;;;;;;10231041;28;20217;-78
2023/04/17 13:04:06;;;;;;;6.07;4.88;;;;;;;;;;10222949;28;20940;-75
2023/04/17 13:09:07;;;;;;;5.50;5.07;;;;;;;;;;10228727;28;20284;-77
2023/04/17 13:14:09;;;;;;;6.53;4.55;;;;;;;;;;10232594;28;20245;-74
2023/04/17 13:19:10;;;;;;;6.78;4.90;;;;;;;;;;10240271;28;21342;-76
2023/04/17 13:24:13;;;;;;;6.57;4.80;;;;;;;;;;10229688;28;20232;-76
2023/04/17 13:29:14;;;;;;;5.88;5.30;;;;;;;;;;10243713;28;20225;-75
2023/04/17 13:34:15;;;;;;;7.20;5.43;;;;;;;;;;10221705;28;20240;-76
2023/04/17 13:39:16;;;;;;;4.78;4.47;;;;;;;;;;10240875;28;20225;-75
2023/04/17 13:44:17;;;;;;;5.03;4.75;;;;;;;;;;10239856;28;20213;-76
2023/04/17 13:49:19;;;;;;;6.63;4.30;;;;;;;;;;10247335;28;20217;-76
2023/04/17 13:54:20;;;;;;;8.48;4.25;;;;;;;;;;10248077;28;20217;-76
2023/04/17 13:59:21;;;;;;;4.78;4.38;;;;;;;;;;10254214;28;20225;-76
2023/04/17 14:04:22;;;;;;;6.68;4.53;;;;;;;;;;10248386;28;20308;-75
2023/04/17 14:09:23;;;;;;;6.95;4.88;;;;;;;;;;10252620;28;20892;-76
2023/04/17 14:14:24;;;;;;;7.15;4.97;;;;;;;;;;10252878;28;20227;-76
2023/04/17 14:19:25;;;;;;;5.35;4.85;;;;;;;;;;10241474;28;20221;-73
2023/04/17 14:24:26;;;;;;;6.80;5.10;;;;;;;;;;10247840;28;20213;-77
2023/04/17 14:29:27;;;;;;;5.55;4.65;;;;;;;;;;10257018;28;20575;-77
2023/04/17 14:34:28;;;;;;;4.45;4.15;;;;;;;;;;10226746;28;20237;-75
2023/04/17 14:39:31;;;;;;;8.00;4.63;;;;;;;;;;10254590;28;20299;-76
2023/04/17 14:44:32;;;;;;;5.97;4.85;;;;;;;;;;10242470;28;20225;-77
2023/04/17 14:49:33;;;;;;;5.07;4.60;;;;;;;;;;10254328;28;20233;-76
2023/04/17 14:54:34;;;;;;;5.88;4.72;;;;;;;;;;10243561;28;20228;-77
2023/04/17 14:59:35;;;;;;;6.05;4.82;;;;;;;;;;10269287;28;20221;-76
2023/04/17 15:04:36;;;;;;;5.45;4.97;;;;;;;;;;10255091;28;20245;-76
2023/04/17 15:09:37;;;;;;;4.85;4.40;;;;;;;;;;10255811;28;20463;-75
2023/04/17 15:14:38;;;;;;;4.72;4.30;;;;;;;;;;10236048;28;20594;-75
2023/04/17 15:19:39;;;;;;;5.57;4.65;;;;;;;;;;10251213;28;20221;-76
2023/04/17 15:24:40;;;;;;;5.20;4.70;;;;;;;;;;10235055;28;20780;-74
2023/04/17 15:29:41;;;;;;;5.22;4.65;;;;;;;;;;10235289;28;20221;-76
2023/04/17 15:34:42;;;;;;;5.20;4.80;;;;;;;;;;10239152;28;21019;-75
2023/04/17 15:39:43;;;;;;;5.20;4.75;;;;;;;;;;10235302;28;20221;-75
2023/04/17 15:44:44;;;;;;;5.72;5.20;;;;;;;;;;10253720;28;20221;-75
2023/04/17 15:49:46;;;;;;;7.32;4.75;;;;;;;;;;10253950;28;20230;-78
2023/04/17 15:54:47;;;;;;;6.78;5.10;;;;;;;;;;10215951;28;20221;-75
2023/04/17 15:59:49;;;;;;;5.68;5.28;;;;;;;;;;10241553;28;20260;-77
2023/04/17 16:04:50;;;;;;;6.40;5.20;;;;;;;;;;10246055;28;20279;-74
2023/04/17 16:09:50;;;;;;;4.93;4.45;;;;;;;;;;10248712;28;20221;-77
2023/04/17 16:14:52;;;;;;;6.05;5.07;;;;;;;;;;10250138;28;20225;-77
2023/04/17 16:19:53;;;;;;;5.60;4.65;;;;;;;;;;10257036;28;20235;-75
2023/04/17 16:24:54;;;;;;;4.63;4.40;;;;;;;;;;10222588;28;20599;-74
2023/04/17 16:29:55;;;;;;;4.47;4.07;;;;;;;;;;10222985;28;20216;-77
2023/04/17 16:34:56;;;;;;;4.40;4.00;;;;;;;;;;10243623;28;20280;-76
2023/04/17 16:40:01;;;;;;;4.15;3.60;;;;;;;;;;10226313;28;20237;-78
2023/04/17 16:45:02;;;;;;;3.38;3.17;;;;;;;;;;10218401;28;21075;-76
2023/04/17 16:50:05;;;;;;;2.65;2.53;;;;;;;;;;10233530;28;20221;-73
2023/04/17 16:55:07;;;;;;;3.38;3.08;;;;;;;;;;10245713;28;20732;-75
2023/04/17 17:00:08;;;;;;;3.22;3.00;;;;;;;;;;10230973;28;20274;-75
2023/04/17 17:05:10;;;;;;;3.22;3.10;;;;;;;;;;10223860;28;20221;-76
2023/04/17 17:10:11;;;;;;;3.20;2.50;;;;;;;;;;10230652;28;20663;-75
2023/04/17 17:15:12;;;;;;;2.45;2.35;;;;;;;;;;10231457;28;20238;-76
2023/04/17 17:20:13;;;;;;;2.35;2.22;;;;;;;;;;10244359;28;20225;-77
2023/04/17 17:25:14;;;;;;;2.83;2.63;;;;;;;;;;10224128;28;20318;-78
2023/04/17 17:30:15;;;;;;;4.13;2.22;;;;;;;;;;10232928;28;20212;-76
2023/04/17 17:35:16;;;;;;;3.20;2.90;;;;;;;;;;10241257;28;20212;-77
2023/04/17 17:40:17;;;;;;;2.17;2.08;;;;;;;;;;10238379;28;20261;-75
2023/04/17 17:45:18;;;;;;;1.85;1.83;;;;;;;;;;10232282;28;20803;-74
2023/04/17 17:50:19;;;;;;;2.15;2.05;;;;;;;;;;10246341;28;20262;-75
2023/04/17 17:55:20;;;;;;;2.50;2.30;;;;;;;;;;10245552;28;20213;-73
2023/04/17 18:00:21;;;;;;;2.97;2.38;;;;;;;;;;10246561;28;20312;-77
2023/04/17 18:05:22;;;;;;;3.13;2.75;;;;;;;;;;10244231;28;20621;-78
2023/04/17 18:10:23;;;;;;;2.60;2.50;;;;;;;;;;10246135;28;20233;-79
2023/04/17 18:15:24;;;;;;;2.92;2.83;;;;;;;;;;10238541;28;20213;-76
2023/04/17 18:20:25;;;;;;;3.58;3.28;;;;;;;;;;10251774;28;21024;-81
2023/04/17 18:25:26;;;;;;;2.78;2.58;;;;;;;;;;10235625;28;20237;-82
2023/04/17 18:30:27;;;;;;;5.20;3.00;;;;;;;;;;10238266;28;20217;-78
2023/04/17 18:35:28;;;;;;;2.58;2.33;;;;;;;;;;10235721;28;20221;-79
2023/04/17 18:40:29;;;;;;;2.20;2.10;;;;;;;;;;10216203;28;20225;-76
2023/04/17 18:45:30;;;;;;;2.20;2.15;;;;;;;;;;10243756;28;20218;-76
2023/04/17 18:50:31;;;;;;;3.90;2.50;;;;;;;;;;10243706;28;20253;-80
2023/04/17 18:55:34;;;;;;;2.17;2.08;;;;;;;;;;10237871;28;20225;-79
2023/04/17 19:00:36;;;;;;;1.75;1.70;;;;;;;;;;10272440;28;20307;-78
2023/04/17 19:05:37;;;;;;;4.03;2.40;;;;;;;;;;10245223;28;20272;-80
2023/04/17 19:10:38;;;;;;;2.05;1.98;;;;;;;;;;10253495;28;20225;-78
2023/04/17 19:15:39;;;;;;;1.98;1.88;;;;;;;;;;10248833;28;21122;-76
2023/04/17 19:20:41;;;;;;;2.22;2.13;;;;;;;;;;10232539;28;20244;-78
2023/04/17 19:25:42;;;;;;;1.42;1.42;;;;;;;;;;10245249;28;20210;-77
2023/04/17 19:30:43;;;;;;;1.60;1.60;;;;;;;;;;10241324;28;20260;-80
2023/04/17 19:35:44;;;;;;;2.22;2.13;;;;;;;;;;10244790;28;20221;-79
2023/04/17 19:41:04;;;;;;;2.08;1.95;;;;;;;;;;10228222;28;20349;-81
2023/04/17 19:46:07;;;;;;;2.00;2.00;;;;;;;;;;10246025;28;20224;-77
2023/04/17 19:51:08;;;;;;;2.53;2.40;;;;;;;;;;10247060;28;20253;-76
2023/04/17 19:56:10;;;;;;;2.78;2.67;;;;;;;;;;10243647;28;20308;-79
2023/04/17 20:01:11;;;;;;;3.60;3.28;;;;;;;;;;10260693;28;20279;-81
2023/04/17 20:06:12;;;;;;;3.97;3.55;;;;;;;;;;10240882;28;20221;-77
2023/04/17 20:11:15;;;;;;;4.38;3.25;;;;;;;;;;10233648;28;20231;-77
2023/04/17 20:16:16;;;;;;;3.10;2.90;;;;;;;;;;10238551;28;20255;-77
2023/04/17 20:21:17;;;;;;;2.90;2.70;;;;;;;;;;10244444;28;20235;-78
2023/04/17 20:26:18;;;;;;;3.75;3.45;;;;;;;;;;10253566;28;20738;-76
2023/04/17 20:31:19;;;;;;;2.67;2.50;;;;;;;;;;10254474;28;20305;-77
2023/04/17 20:36:21;;;;;;;2.30;2.10;;;;;;;;;;10254801;28;20213;-78
2023/04/17 20:41:22;;;;;;;2.83;2.63;;;;;;;;;;10232751;28;20214;-75
2023/04/17 20:46:23;;;;;;;3.13;2.88;;;;;;;;;;10267961;28;20224;-76
2023/04/17 20:51:25;;;;;;;3.03;2.92;;;;;;;;;;10246559;28;20229;-74
2023/04/17 20:56:26;;;;;;;3.30;3.08;;;;;;;;;;10251666;28;20704;-79
2023/04/17 21:01:27;;;;;;;3.35;3.17;;;;;;;;;;10249490;28;20241;-76
2023/04/17 21:06:28;;;;;;;4.68;4.22;;;;;;;;;;10250961;28;20222;-74
2023/04/17 21:11:29;;;;;;;4.78;4.38;;;;;;;;;;10249663;28;20217;-76
2023/04/17 21:16:30;;;;;;;4.57;3.60;;;;;;;;;;10245961;28;20588;-76
2023/04/17 21:21:31;;;;;;;3.70;3.40;;;;;;;;;;10232701;28;20376;-75
2023/04/17 21:26:32;;;;;;;4.38;3.97;;;;;;;;;;10236137;28;20263;-77
2023/04/17 21:31:33;;;;;;;4.00;3.72;;;;;;;;;;10234848;28;20666;-76
2023/04/17 21:36:34;;;;;;;4.35;3.95;;;;;;;;;;10232265;28;20225;-75
2023/04/17 21:41:35;;;;;;;5.57;4.38;;;;;;;;;;10265870;28;20316;-75
2023/04/17 21:46:37;;;;;;;6.35;4.57;;;;;;;;;;10253339;28;20226;-77
2023/04/17 21:51:37;;;;;;;6.15;4.82;;;;;;;;;;10246483;28;20229;-77
2023/04/17 21:56:39;;;;;;;6.38;4.72;;;;;;;;;;10252833;28;20221;-76
2023/04/17 22:01:39;;;;;;;7.10;5.47;;;;;;;;;;10247772;28;21012;-77
2023/04/17 22:06:40;;;;;;;4.32;3.90;;;;;;;;;;10237828;28;20225;-73
2023/04/17 22:11:42;;;;;;;4.35;3.97;;;;;;;;;;10210452;28;20248;-76
2023/04/17 22:16:43;;;;;;;6.57;4.88;;;;;;;;;;10228114;28;20220;-76
2023/04/17 22:21:44;;;;;;;5.22;4.72;;;;;;;;;;10247696;28;20243;-74
2023/04/17 22:26:45;;;;;;;5.03;4.57;;;;;;;;;;10252931;28;20300;-75
2023/04/17 22:31:48;;;;;;;5.25;4.68;;;;;;;;;;10245829;28;20715;-76
2023/04/17 22:36:49;;;;;;;4.47;4.07;;;;;;;;;;10258168;28;20245;-75
2023/04/17 22:41:50;;;;;;;8.18;5.38;;;;;;;;;;10272736;28;20726;-76
2023/04/17 22:46:51;;;;;;;6.25;5.18;;;;;;;;;;10253796;28;20210;-77
2023/04/17 22:51:52;;;;;;;5.75;4.85;;;;;;;;;;10236300;28;20317;-75
2023/04/17 22:56:53;;;;;;;5.35;4.85;;;;;;;;;;10243995;28;20227;-75
2023/04/17 23:01:54;;;;;;;5.38;4.88;;;;;;;;;;10236872;28;20217;-75
2023/04/17 23:06:56;;;;;;;7.18;5.03;;;;;;;;;;10252296;28;20221;-78
2023/04/17 23:11:57;;;;;;;5.40;4.90;;;;;;;;;;10237261;28;20292;-78
2023/04/17 23:16:58;;;;;;;7.43;5.22;;;;;;;;;;10257284;28;20209;-78
2023/04/17 23:22:00;;;;;;;5.57;4.88;;;;;;;;;;10255381;28;20221;-77
2023/04/17 23:27:01;;;;;;;6.43;5.35;;;;;;;;;;10240007;28;20345;-77
2023/04/17 23:32:03;;;;;;;6.30;5.40;;;;;;;;;;10237419;28;20352;-77
2023/04/17 23:37:04;;;;;;;6.28;5.07;;;;;;;;;;10257104;28;20317;-77
2023/04/17 23:42:06;;;;;;;5.72;4.97;;;;;;;;;;10245303;28;20226;-77
2023/04/17 23:47:08;;;;;;;7.07;5.15;;;;;;;;;;10233684;28;20213;-78
2023/04/17 23:52:09;;;;;;;9.43;6.30;;;;;;;;;;10252483;28;20245;-75
2023/04/17 23:57:10;;;;;;;8.00;6.00;;;;;;;;;;10240804;28;20709;-78
